Stockton, California
Current Conditions -  °F | °C
As of 6:55 PM on Monday 20 Oct 2014 (Local Time) from KSCK Reporting Station
Overcast Overcast  
Wind Chill: 69°   Ceiling: 6000
Heat Index: 69°   Visibility: 10mi
Dew Point: 49°   Wind: 15mph
Humidity: 49%   Direction: 270°W
Pressure: 29.96"   Gusts: NA
Location:  37.95°N, 121.29°W
Report Text: KSCK 210155Z 27013KT 10SM OVC060 21/09 A2996 RMK AO2 RAE0057 SLP145 P0000 T02060094
Loading
Personal Weather Stations






























Interactive Weather Map
Tropical Storm Tracking
New forecast layout! Learn more

10-Day Weather Forecast

Advertisements
Track Severe Weather on mobile